createdAt,value
2018-09-06T00:01:44.290Z,14.27
2018-09-06T00:04:12.798Z,13.13
2018-09-06T00:06:41.299Z,12.67
2018-09-06T00:09:10.327Z,12.10
2018-09-06T00:11:38.870Z,12.60
2018-09-06T00:14:07.359Z,12.30
2018-09-06T00:16:42.499Z,12.80
2018-09-06T00:19:10.986Z,13.60
2018-09-06T00:21:39.521Z,13.63
2018-09-06T00:24:08.014Z,12.30
2018-09-06T00:26:36.522Z,12.97
2018-09-06T00:29:05.011Z,13.03
2018-09-06T00:31:33.938Z,11.63
2018-09-06T00:34:02.458Z,12.87
2018-09-06T00:36:30.967Z,13.43
2018-09-06T00:38:59.498Z,13.40
2018-09-06T00:41:28.029Z,13.67
2018-09-06T00:43:56.658Z,13.50
2018-09-06T00:46:25.123Z,12.33
2018-09-06T00:48:53.601Z,14.37
2018-09-06T00:51:22.112Z,14.40
2018-09-06T00:53:50.610Z,14.87
2018-09-06T00:56:19.138Z,13.00
2018-09-06T00:58:47.680Z,15.13
2018-09-06T01:01:16.206Z,12.77
2018-09-06T01:03:44.701Z,14.70
2018-09-06T01:06:13.203Z,14.70
2018-09-06T01:08:41.860Z,15.17
2018-09-06T01:11:10.554Z,14.40
2018-09-06T01:13:39.118Z,14.83
2018-09-06T01:16:07.925Z,16.80
2018-09-06T01:18:36.598Z,16.23
2018-09-06T01:21:05.261Z,15.90
2018-09-06T01:23:33.828Z,16.20
2018-09-06T01:26:02.477Z,14.60
2018-09-06T01:28:31.001Z,14.90
2018-09-06T01:30:59.568Z,15.97
2018-09-06T01:33:28.215Z,15.37
2018-09-06T01:36:01.821Z,15.40
2018-09-06T01:38:30.349Z,16.57
2018-09-06T01:40:58.912Z,16.90
2018-09-06T01:43:27.449Z,15.97
2018-09-06T01:45:55.945Z,15.67
2018-09-06T01:48:24.473Z,16.97
2018-09-06T01:50:53.030Z,17.03
2018-09-06T01:53:21.929Z,16.30
2018-09-06T01:55:50.431Z,17.17
2018-09-06T01:58:18.902Z,17.80
2018-09-06T02:00:47.393Z,16.33
2018-09-06T02:03:15.861Z,18.17
2018-09-06T02:05:44.688Z,17.90
2018-09-06T02:08:13.304Z,16.07
2018-09-06T02:10:41.802Z,17.73
2018-09-06T02:13:10.324Z,17.27
2018-09-06T02:15:38.878Z,17.47
2018-09-06T02:18:07.397Z,17.60
2018-09-06T02:20:35.848Z,17.40
2018-09-06T02:23:04.320Z,16.60
2018-09-06T02:25:32.857Z,19.90
2018-09-06T02:28:01.361Z,17.23
2018-09-06T02:30:29.845Z,18.90
2018-09-06T02:32:58.309Z,19.20
2018-09-06T02:35:26.819Z,20.13
2018-09-06T02:37:55.374Z,19.57
2018-09-06T02:40:29.206Z,19.87
2018-09-06T02:42:57.690Z,22.40
2018-09-06T02:45:26.163Z,22.50
2018-09-06T02:47:55.754Z,22.03
2018-09-06T02:50:29.607Z,22.97
2018-09-06T02:52:58.386Z,24.33
2018-09-06T02:55:28.365Z,25.00
2018-09-06T02:57:57.254Z,25.17
2018-09-06T03:00:29.128Z,24.97
2018-09-06T03:02:57.621Z,28.50
2018-09-06T03:05:26.772Z,28.17
2018-09-06T03:07:56.529Z,27.10
2018-09-06T03:10:26.260Z,29.73
2018-09-06T03:12:54.764Z,26.50
2018-09-06T03:15:23.464Z,26.50
2018-09-06T03:17:51.945Z,28.90
2018-09-06T03:20:20.410Z,32.27
2018-09-06T03:22:48.948Z,28.27
2018-09-06T03:25:17.442Z,28.93
2018-09-06T03:27:45.952Z,30.67
2018-09-06T03:30:14.519Z,29.87
2018-09-06T03:32:43.011Z,28.27
2018-09-06T03:35:11.517Z,28.03
2018-09-06T03:37:40.153Z,28.60
2018-09-06T03:40:08.649Z,28.50
2018-09-06T03:42:37.152Z,27.60
2018-09-06T03:45:05.675Z,26.93
2018-09-06T03:47:34.214Z,28.50
2018-09-06T03:50:02.714Z,27.67
2018-09-06T03:52:31.218Z,28.17
2018-09-06T03:54:59.823Z,29.17
2018-09-06T03:57:28.352Z,27.57
2018-09-06T03:59:57.288Z,28.40
2018-09-06T04:02:25.790Z,27.77
2018-09-06T04:04:54.297Z,30.20
2018-09-06T04:07:22.867Z,28.80
2018-09-06T04:09:51.422Z,27.90
2018-09-06T04:12:19.910Z,28.00
2018-09-06T04:14:48.441Z,26.90
2018-09-06T04:17:16.996Z,29.10
2018-09-06T04:19:45.535Z,28.67
2018-09-06T04:22:14.043Z,28.40
2018-09-06T04:24:42.518Z,30.13
2018-09-06T04:27:11.086Z,28.87
2018-09-06T04:29:39.608Z,27.93
2018-09-06T04:32:08.206Z,28.77
2018-09-06T04:34:36.750Z,30.67
2018-09-06T04:37:05.607Z,30.53
2018-09-06T04:39:34.171Z,28.50
2018-09-06T04:42:02.693Z,29.80
2018-09-06T04:44:31.304Z,28.77
2018-09-06T04:46:59.761Z,29.93
2018-09-06T04:49:28.238Z,28.63
2018-09-06T04:51:56.767Z,30.20
2018-09-06T04:54:25.347Z,28.33
2018-09-06T04:56:53.867Z,29.50
2018-09-06T04:59:22.342Z,30.00
2018-09-06T05:01:50.855Z,29.37
2018-09-06T05:04:19.403Z,29.53
2018-09-06T05:06:48.890Z,29.20
2018-09-06T05:09:17.381Z,28.50
2018-09-06T05:11:45.921Z,29.43
2018-09-06T05:14:14.485Z,28.33
2018-09-06T05:16:43.031Z,29.43
2018-09-06T05:19:11.526Z,27.63
2018-09-06T05:21:40.061Z,27.60
2018-09-06T05:24:08.608Z,30.07
2018-09-06T05:26:37.155Z,28.40
2018-09-06T05:29:05.790Z,27.27
2018-09-06T05:31:34.316Z,28.33
2018-09-06T05:34:02.849Z,26.17
2018-09-06T05:36:31.457Z,27.57
2018-09-06T05:39:00.071Z,27.30
2018-09-06T05:41:28.608Z,29.53
2018-09-06T05:43:57.148Z,27.10
2018-09-06T05:46:25.765Z,27.33
2018-09-06T05:48:54.363Z,29.70
2018-09-06T05:51:22.881Z,26.50
2018-09-06T05:53:51.402Z,27.20
2018-09-06T05:56:19.919Z,26.43
2018-09-06T05:58:48.452Z,27.07
2018-09-06T06:01:17.339Z,27.00
2018-09-06T06:03:45.963Z,27.33
2018-09-06T06:06:14.846Z,27.67
2018-09-06T06:08:49.329Z,25.97
2018-09-06T06:11:18.554Z,25.93
2018-09-06T06:13:47.080Z,27.80
2018-09-06T06:16:15.606Z,26.83
2018-09-06T06:18:44.226Z,25.47
2018-09-06T06:21:12.931Z,27.67
2018-09-06T06:23:41.502Z,26.30
2018-09-06T06:26:10.091Z,25.30
2018-09-06T06:28:38.624Z,26.13
2018-09-06T06:31:07.183Z,27.37
2018-09-06T06:33:36.301Z,26.27
2018-09-06T06:36:04.860Z,27.17
2018-09-06T06:38:33.434Z,27.17
2018-09-06T06:41:01.959Z,27.20
2018-09-06T06:43:30.550Z,26.27
2018-09-06T06:45:59.090Z,27.50
2018-09-06T06:48:27.627Z,28.60
2018-09-06T06:50:56.177Z,27.73
2018-09-06T06:53:24.729Z,30.07
2018-09-06T06:55:53.577Z,27.67
2018-09-06T06:58:22.083Z,28.83
2018-09-06T07:00:50.634Z,29.30
2018-09-06T07:03:19.155Z,29.20
2018-09-06T07:05:47.642Z,28.70
2018-09-06T07:08:16.431Z,32.73
2018-09-06T07:10:44.921Z,31.53
2018-09-06T07:13:13.462Z,35.73
2018-09-06T07:15:42.086Z,31.40
2018-09-06T07:18:10.726Z,32.10
2018-09-06T07:20:39.222Z,32.03
2018-09-06T07:23:07.733Z,33.87
2018-09-06T07:25:36.231Z,33.53
2018-09-06T07:28:04.729Z,33.93
2018-09-06T07:30:33.216Z,32.17
2018-09-06T07:33:01.737Z,33.60
2018-09-06T07:35:30.220Z,34.83
2018-09-06T07:37:59.101Z,34.90
2018-09-06T07:40:27.655Z,36.00
2018-09-06T07:42:56.175Z,33.30
2018-09-06T07:45:24.705Z,34.60
2018-09-06T07:47:53.674Z,34.50
2018-09-06T07:50:22.985Z,39.37
2018-09-06T07:52:51.552Z,37.43
2018-09-06T07:55:21.619Z,37.80
2018-09-06T07:57:50.222Z,35.90
2018-09-06T08:00:18.771Z,36.80
2018-09-06T08:02:47.293Z,37.17
2018-09-06T08:05:15.820Z,34.37
2018-09-06T08:07:44.833Z,33.70
2018-09-06T08:10:16.322Z,33.57
2018-09-06T08:12:45.576Z,34.17
2018-09-06T08:15:15.802Z,32.40
2018-09-06T08:17:46.040Z,34.07
2018-09-06T08:20:14.779Z,35.83
2018-09-06T08:22:43.433Z,34.33
2018-09-06T08:25:11.966Z,33.60
2018-09-06T08:27:40.573Z,36.57
2018-09-06T08:30:09.426Z,31.67
2018-09-06T08:32:37.918Z,33.37
2018-09-06T08:35:06.457Z,36.10
2018-09-06T08:37:35.031Z,36.47
2018-09-06T08:40:03.570Z,37.63
2018-09-06T08:42:33.043Z,36.87
2018-09-06T08:45:01.591Z,37.30
2018-09-06T08:47:30.153Z,34.53
2018-09-06T08:49:58.673Z,36.20
2018-09-06T08:52:27.378Z,36.60
2018-09-06T08:54:56.264Z,37.23
2018-09-06T08:57:24.807Z,36.73
2018-09-06T08:59:53.334Z,35.97
2018-09-06T09:02:21.954Z,33.97
2018-09-06T09:04:50.431Z,30.83
2018-09-06T09:07:19.021Z,34.03
2018-09-06T09:09:47.628Z,34.23
2018-09-06T09:12:22.938Z,32.80
2018-09-06T09:14:51.433Z,30.63
2018-09-06T09:17:22.752Z,30.20
2018-09-06T09:19:53.071Z,31.00
2018-09-06T09:22:22.095Z,29.93
2018-09-06T09:24:50.600Z,27.13
2018-09-06T09:27:19.141Z,29.83
2018-09-06T09:29:47.647Z,28.90
2018-09-06T09:32:16.234Z,27.83
2018-09-06T09:34:45.197Z,28.20
2018-09-06T09:37:13.805Z,30.10
2018-09-06T09:39:42.836Z,27.60
2018-09-06T09:42:12.034Z,29.60
2018-09-06T09:44:41.002Z,29.13
2018-09-06T09:49:37.526Z,30.90
2018-09-06T09:52:06.081Z,31.10
2018-09-06T09:54:34.614Z,31.10
2018-09-06T09:57:03.318Z,31.30
2018-09-06T09:59:32.753Z,32.10
2018-09-06T10:02:06.630Z,31.40
2018-09-06T10:05:38.743Z,29.73
2018-09-06T10:08:13.970Z,32.07
2018-09-06T10:10:42.657Z,30.70
2018-09-06T10:13:12.248Z,33.37
2018-09-06T10:15:41.362Z,34.17
2018-09-06T10:18:10.439Z,35.97
2018-09-06T10:20:39.292Z,36.40
2018-09-06T10:23:08.034Z,37.30
2018-09-06T10:25:36.593Z,36.27
2018-09-06T10:28:05.227Z,35.87
2018-09-06T10:30:33.778Z,35.20
2018-09-06T10:33:02.625Z,38.60
2018-09-06T10:35:31.226Z,34.80
2018-09-06T10:37:59.682Z,34.73
2018-09-06T10:40:28.254Z,35.37
2018-09-06T10:42:56.753Z,34.20
2018-09-06T10:45:25.734Z,33.53
2018-09-06T10:47:54.317Z,32.93
2018-09-06T10:50:22.825Z,31.73
2018-09-06T10:52:51.289Z,33.07
2018-09-06T10:55:19.802Z,34.40
2018-09-06T10:57:48.356Z,34.17
2018-09-06T11:00:16.926Z,33.80
2018-09-06T11:02:45.737Z,32.30
2018-09-06T11:05:14.290Z,31.83
2018-09-06T11:07:42.851Z,33.13
2018-09-06T11:10:12.115Z,31.40
2018-09-06T11:12:40.658Z,29.37
2018-09-06T11:15:09.256Z,31.13
2018-09-06T11:17:37.738Z,30.13
2018-09-06T11:20:06.419Z,30.17
2018-09-06T11:22:35.208Z,28.70
2018-09-06T11:25:03.429Z,29.57
2018-09-06T11:27:31.998Z,32.20
2018-09-06T11:30:00.509Z,32.40
2018-09-06T11:32:29.170Z,32.00
2018-09-06T11:34:57.738Z,30.80
2018-09-06T11:37:26.235Z,32.70
2018-09-06T11:39:55.161Z,30.97
2018-09-06T11:42:23.700Z,31.33
2018-09-06T11:44:52.201Z,31.07
2018-09-06T11:47:20.811Z,35.93
2018-09-06T11:49:49.294Z,33.10
2018-09-06T11:52:17.933Z,33.77
2018-09-06T11:54:46.482Z,32.10
2018-09-06T11:57:15.034Z,33.17
2018-09-06T11:59:43.579Z,34.30
2018-09-06T12:02:12.221Z,32.07
2018-09-06T12:04:40.714Z,32.30
2018-09-06T12:07:09.233Z,31.50
2018-09-06T12:09:37.819Z,31.00
2018-09-06T12:12:06.932Z,31.70
2018-09-06T12:14:35.539Z,32.37
2018-09-06T12:17:04.094Z,32.00
2018-09-06T12:19:32.676Z,31.40
2018-09-06T12:22:01.783Z,31.60
2018-09-06T12:24:30.357Z,31.50
2018-09-06T12:26:58.916Z,31.67
2018-09-06T12:29:27.689Z,30.50
2018-09-06T12:31:56.310Z,31.43
2018-09-06T12:34:24.836Z,31.97
2018-09-06T12:36:53.372Z,32.67
2018-09-06T12:39:21.945Z,30.47
2018-09-06T12:41:50.550Z,28.27
2018-09-06T12:44:19.042Z,28.93
2018-09-06T12:46:47.595Z,29.00
2018-09-06T12:49:16.738Z,29.00
2018-09-06T12:51:45.331Z,29.23
2018-09-06T12:54:13.846Z,28.10
2018-09-06T12:56:42.446Z,26.00
2018-09-06T12:59:10.933Z,26.57
2018-09-06T13:01:39.472Z,28.43
2018-09-06T13:04:07.975Z,28.40
2018-09-06T13:06:36.460Z,28.37
2018-09-06T13:09:06.223Z,26.67
2018-09-06T13:11:35.019Z,28.17
2018-09-06T13:14:03.606Z,27.17
2018-09-06T13:16:32.163Z,26.60
2018-09-06T13:19:00.835Z,27.00
2018-09-06T13:21:29.463Z,26.10
2018-09-06T13:23:58.004Z,26.00
2018-09-06T13:26:26.505Z,26.70
2018-09-06T13:28:55.058Z,27.67
2018-09-06T13:31:24.370Z,27.20
2018-09-06T13:33:52.874Z,24.57
2018-09-06T13:36:21.439Z,25.57
2018-09-06T13:38:50.330Z,25.23
2018-09-06T13:41:18.862Z,24.63
2018-09-06T13:43:47.399Z,25.67
2018-09-06T13:46:15.982Z,26.47
2018-09-06T13:48:44.669Z,24.80
2018-09-06T13:51:13.286Z,27.17
2018-09-06T13:53:41.831Z,25.37
2018-09-06T13:56:10.462Z,24.40
2018-09-06T13:58:39.104Z,25.23
2018-09-06T14:01:07.979Z,23.00
2018-09-06T14:03:36.461Z,24.43
2018-09-06T14:06:04.983Z,24.60
2018-09-06T14:08:33.469Z,23.73
2018-09-06T14:11:02.005Z,23.33
2018-09-06T14:13:30.509Z,23.37
2018-09-06T14:15:59.122Z,24.07
2018-09-06T14:18:27.930Z,20.40
2018-09-06T14:20:56.491Z,20.33
2018-09-06T14:23:25.017Z,20.60
2018-09-06T14:25:53.574Z,21.50
2018-09-06T14:28:22.064Z,20.10
2018-09-06T14:30:50.629Z,21.83
2018-09-06T14:33:19.150Z,19.90
2018-09-06T14:35:47.661Z,21.20
2018-09-06T14:38:16.349Z,19.97
2018-09-06T14:40:44.809Z,21.77
2018-09-06T14:43:13.354Z,22.23
2018-09-06T14:45:41.868Z,20.40
2018-09-06T14:48:10.415Z,20.90
2018-09-06T14:50:38.942Z,22.07
2018-09-06T14:53:07.504Z,18.77
2018-09-06T14:55:36.111Z,19.70
2018-09-06T14:58:03.602Z,19.77
2018-09-06T15:00:32.229Z,18.50
2018-09-06T15:03:00.806Z,19.77
2018-09-06T15:05:29.330Z,18.50
2018-09-06T15:07:57.852Z,16.73
2018-09-06T15:10:26.398Z,17.57
2018-09-06T15:12:54.899Z,17.97
2018-09-06T15:15:23.453Z,18.10
2018-09-06T15:17:52.042Z,19.57
2018-09-06T15:20:20.798Z,18.03
2018-09-06T15:22:49.309Z,17.80
2018-09-06T15:25:17.854Z,19.23
2018-09-06T15:27:46.772Z,19.43
2018-09-06T15:30:15.303Z,18.23
2018-09-06T15:32:43.837Z,18.93
2018-09-06T15:35:12.344Z,20.50
2018-09-06T15:37:40.901Z,20.97
2018-09-06T15:40:09.445Z,20.60
2018-09-06T15:42:37.962Z,21.07
2018-09-06T15:45:06.463Z,19.27
2018-09-06T15:47:35.010Z,22.10
2018-09-06T15:50:03.552Z,20.77
2018-09-06T15:52:32.102Z,20.53
2018-09-06T15:55:00.605Z,20.43
2018-09-06T15:57:29.112Z,21.37
2018-09-06T15:59:57.651Z,23.33
2018-09-06T16:02:26.130Z,22.60
2018-09-06T16:04:54.625Z,22.37
2018-09-06T16:07:25.293Z,26.40
2018-09-06T16:09:53.809Z,26.23
2018-09-06T16:12:22.782Z,24.83
2018-09-06T16:14:51.242Z,22.97
2018-09-06T16:17:21.536Z,25.07
2018-09-06T16:19:50.117Z,24.17
2018-09-06T16:22:19.066Z,25.27
2018-09-06T16:24:47.604Z,25.17
2018-09-06T16:27:16.159Z,24.90
2018-09-06T16:29:44.763Z,24.03
2018-09-06T16:32:13.284Z,24.80
2018-09-06T16:34:41.951Z,23.40
2018-09-06T16:37:10.566Z,24.40
2018-09-06T16:39:39.034Z,23.30
2018-09-06T16:42:11.656Z,21.40
2018-09-06T16:44:40.538Z,21.60
2018-09-06T16:47:09.035Z,22.10
2018-09-06T16:49:37.570Z,23.20
2018-09-06T16:52:06.170Z,22.73
2018-09-06T16:54:36.305Z,21.10
2018-09-06T16:57:05.365Z,18.53
2018-09-06T16:59:33.882Z,20.97
2018-09-06T17:02:02.389Z,22.17
2018-09-06T17:04:30.995Z,21.60
2018-09-06T17:07:00.067Z,20.40
2018-09-06T17:09:28.503Z,20.63
2018-09-06T17:11:57.185Z,20.00
2018-09-06T17:14:25.746Z,21.50
2018-09-06T17:16:54.448Z,21.10
2018-09-06T17:19:23.039Z,21.40
2018-09-06T17:21:51.662Z,20.27
2018-09-06T17:24:20.185Z,21.40
2018-09-06T17:26:48.863Z,23.03
2018-09-06T17:29:17.540Z,21.27
2018-09-06T17:31:46.083Z,21.30
2018-09-06T17:34:14.813Z,20.87
2018-09-06T17:36:43.942Z,18.97
2018-09-06T17:39:13.616Z,18.77
2018-09-06T17:41:42.034Z,18.00
2018-09-06T17:44:13.365Z,16.67
2018-09-06T17:46:42.393Z,17.80
2018-09-06T17:49:11.177Z,17.83
2018-09-06T17:51:40.094Z,18.43
2018-09-06T17:54:08.715Z,17.00
2018-09-06T17:56:37.309Z,15.50
2018-09-06T17:59:06.043Z,17.27
2018-09-06T18:01:37.379Z,19.00
2018-09-06T18:04:06.268Z,16.53
2018-09-06T18:06:34.774Z,18.00
2018-09-06T18:09:05.187Z,17.83
2018-09-06T18:11:33.792Z,18.30
2018-09-06T18:14:02.330Z,18.87
2018-09-06T18:16:30.811Z,18.73
2018-09-06T18:18:59.517Z,19.17
2018-09-06T18:21:28.101Z,20.23
2018-09-06T18:23:57.359Z,20.23
2018-09-06T18:26:32.625Z,20.20
2018-09-06T18:29:01.245Z,18.60
2018-09-06T18:31:30.008Z,19.63
2018-09-06T18:33:58.518Z,21.30
2018-09-06T18:36:27.191Z,20.43
2018-09-06T18:38:55.853Z,19.63
2018-09-06T18:41:24.439Z,19.50
2018-09-06T18:43:52.985Z,21.07
2018-09-06T18:46:21.505Z,19.30
2018-09-06T18:48:50.033Z,20.43
2018-09-06T18:51:18.571Z,20.10
2018-09-06T18:53:47.226Z,19.43
2018-09-06T18:56:15.926Z,20.00
2018-09-06T18:58:44.562Z,18.90
2018-09-06T19:01:13.130Z,18.30
2018-09-06T19:03:42.095Z,18.20
2018-09-06T19:06:10.617Z,18.80
2018-09-06T19:08:39.230Z,18.00
2018-09-06T19:11:07.918Z,18.60
2018-09-06T19:13:36.404Z,20.77
2018-09-06T19:16:04.944Z,18.30
2018-09-06T19:18:33.528Z,20.13
2018-09-06T19:21:02.271Z,20.13
2018-09-06T19:23:30.836Z,20.47
2018-09-06T19:25:59.590Z,21.40
2018-09-06T19:28:28.663Z,18.23
2018-09-06T19:30:57.145Z,17.70
2018-09-06T19:33:25.642Z,16.23
2018-09-06T19:35:54.211Z,15.90
2018-09-06T19:38:22.726Z,16.53
2018-09-06T19:40:51.246Z,16.43
2018-09-06T19:43:19.860Z,16.37
2018-09-06T19:45:48.811Z,15.63
2018-09-06T19:48:17.305Z,14.60
2018-09-06T19:50:46.432Z,14.33
2018-09-06T19:53:14.970Z,15.67
2018-09-06T19:55:43.484Z,14.70
2018-09-06T19:58:12.099Z,13.73
2018-09-06T20:00:40.702Z,13.80
2018-09-06T20:03:09.266Z,13.43
2018-09-06T20:05:37.770Z,14.70
2018-09-06T20:08:06.662Z,13.83
2018-09-06T20:13:09.932Z,14.33
2018-09-06T20:15:38.585Z,13.30
2018-09-06T20:18:07.117Z,14.57
2018-09-06T20:20:35.618Z,15.30
2018-09-06T20:23:04.130Z,15.70
2018-09-06T20:25:32.662Z,14.90
2018-09-06T20:28:01.196Z,13.70
2018-09-06T20:30:29.640Z,16.63
2018-09-06T20:32:58.994Z,15.80
2018-09-06T20:35:27.517Z,14.10
2018-09-06T20:37:56.042Z,15.00
2018-09-06T20:40:24.966Z,16.90
2018-09-06T20:42:53.632Z,14.90
2018-09-06T20:45:22.113Z,14.87
2018-09-06T20:47:50.710Z,15.03
2018-09-06T20:50:19.303Z,14.43
2018-09-06T20:52:47.906Z,14.77
2018-09-06T20:55:16.408Z,14.67
2018-09-06T20:57:44.980Z,15.60
2018-09-06T21:00:13.458Z,14.80
2018-09-06T21:02:41.947Z,15.60
2018-09-06T21:05:10.509Z,14.60
2018-09-06T21:07:39.161Z,13.93
2018-09-06T21:10:07.688Z,14.93
2018-09-06T21:12:36.131Z,14.70
2018-09-06T21:15:04.652Z,15.13
2018-09-06T21:17:33.238Z,16.47
2018-09-06T21:20:01.746Z,13.97
2018-09-06T21:22:30.244Z,14.13
2018-09-06T21:24:58.729Z,15.30
2018-09-06T21:27:27.387Z,14.13
2018-09-06T21:29:56.052Z,14.47
2018-09-06T21:32:24.636Z,14.00
2018-09-06T21:34:53.205Z,13.80
2018-09-06T21:37:21.675Z,13.30
2018-09-06T21:39:50.226Z,15.10
2018-09-06T21:42:18.704Z,13.93
2018-09-06T21:44:47.351Z,14.90
2018-09-06T21:47:15.930Z,13.63
2018-09-06T21:49:44.465Z,13.03
2018-09-06T21:52:13.061Z,14.60
2018-09-06T21:54:41.613Z,13.00
2018-09-06T21:57:10.137Z,12.90
2018-09-06T21:59:38.636Z,11.73
2018-09-06T22:02:07.240Z,11.60
2018-09-06T22:04:35.875Z,10.90
2018-09-06T22:07:04.353Z,10.33
2018-09-06T22:09:32.871Z,9.17
2018-09-06T22:12:01.362Z,10.10
2018-09-06T22:14:29.956Z,9.10
2018-09-06T22:16:58.497Z,9.27
2018-09-06T22:19:27.044Z,9.70
2018-09-06T22:21:55.570Z,10.63
2018-09-06T22:24:24.174Z,9.83
2018-09-06T22:26:52.687Z,10.10
2018-09-06T22:29:21.211Z,9.20
2018-09-06T22:31:50.344Z,10.10
2018-09-06T22:34:18.884Z,9.13
2018-09-06T22:36:47.382Z,9.43
2018-09-06T22:39:15.902Z,10.10
2018-09-06T22:41:44.440Z,10.20
2018-09-06T22:44:12.994Z,10.30
2018-09-06T22:46:41.535Z,10.60
2018-09-06T22:49:10.041Z,11.20
2018-09-06T22:51:38.621Z,11.33
2018-09-06T22:54:07.160Z,11.77
2018-09-06T22:56:36.266Z,10.50
2018-09-06T22:59:05.220Z,10.87
2018-09-06T23:01:33.797Z,10.10
2018-09-06T23:04:02.375Z,10.00
2018-09-06T23:06:31.048Z,10.27
2018-09-06T23:08:59.624Z,11.70
2018-09-06T23:11:28.581Z,12.37
2018-09-06T23:13:57.093Z,11.10
2018-09-06T23:16:25.711Z,11.20
2018-09-06T23:18:55.835Z,11.43
2018-09-06T23:21:24.341Z,10.80
2018-09-06T23:23:52.814Z,11.37
2018-09-06T23:26:21.702Z,11.87
2018-09-06T23:28:50.202Z,11.70
2018-09-06T23:31:18.826Z,10.63
2018-09-06T23:33:47.361Z,10.80
2018-09-06T23:36:15.859Z,13.13
2018-09-06T23:38:44.350Z,11.40
2018-09-06T23:41:12.938Z,13.10
2018-09-06T23:43:41.527Z,12.13
2018-09-06T23:46:10.065Z,11.47
2018-09-06T23:48:38.709Z,13.30
2018-09-06T23:51:07.536Z,13.97
2018-09-06T23:53:36.042Z,13.50
2018-09-06T23:56:04.554Z,14.27
2018-09-06T23:58:33.077Z,14.00
